createdAt,value
2019-05-02T08:46:58.626Z,10.80
2019-05-02T08:52:15.340Z,11.10
2019-05-02T08:54:45.038Z,11.10
2019-05-02T08:57:13.778Z,11.10
2019-05-02T08:59:43.809Z,11.20
2019-05-02T09:02:12.547Z,11.20
2019-05-02T09:04:41.285Z,11.20
2019-05-02T09:07:10.087Z,11.30
2019-05-02T09:09:38.878Z,11.20
2019-05-02T09:12:12.301Z,11.20
2019-05-02T09:14:42.646Z,11.20
2019-05-02T09:17:16.174Z,11.30
2019-05-02T09:19:42.977Z,11.30
2019-05-02T09:22:15.362Z,11.20
2019-05-02T09:24:44.516Z,11.10
2019-05-02T09:27:13.339Z,11.10
2019-05-02T09:29:45.835Z,11.00
2019-05-02T09:32:17.004Z,11.00
2019-05-02T09:34:43.725Z,11.10
2019-05-02T09:37:12.618Z,11.20
2019-05-02T09:39:41.623Z,11.20
2019-05-02T09:42:12.452Z,11.10
2019-05-02T09:44:42.531Z,11.10
2019-05-02T09:47:14.060Z,11.00
2019-05-02T09:49:48.850Z,11.10
2019-05-02T09:52:13.371Z,11.20
2019-05-02T09:54:46.029Z,11.20
2019-05-02T09:57:14.009Z,11.10
2019-05-02T09:59:50.404Z,11.10
2019-05-02T10:02:14.741Z,11.10
2019-05-02T10:04:44.161Z,11.10
2019-05-02T10:07:15.311Z,11.10
2019-05-02T10:09:44.755Z,11.10
2019-05-02T10:12:13.760Z,11.00
2019-05-02T10:14:43.044Z,10.90
2019-05-02T10:17:12.792Z,10.70
2019-05-02T10:19:49.181Z,10.60
2019-05-02T10:22:14.267Z,10.60
2019-05-02T10:24:45.300Z,10.70
2019-05-02T10:27:14.257Z,10.70
2019-05-02T10:29:43.747Z,10.80
2019-05-02T10:32:16.546Z,11.00
2019-05-02T10:34:47.571Z,11.10
2019-05-02T10:37:14.374Z,11.00
2019-05-02T10:39:45.977Z,11.00
2019-05-02T10:42:15.050Z,11.00
2019-05-02T10:44:43.999Z,10.90
2019-05-02T10:47:13.026Z,10.80
2019-05-02T10:49:43.522Z,10.80
2019-05-02T10:52:13.884Z,10.80
2019-05-02T10:54:44.802Z,10.80
2019-05-02T10:57:13.914Z,10.80
2019-05-02T10:59:43.393Z,10.80
2019-05-02T11:02:25.872Z,10.80
2019-05-02T11:04:59.448Z,10.90
2019-05-02T11:07:28.245Z,11.00
2019-05-02T11:10:01.911Z,11.00
2019-05-02T11:12:44.160Z,10.90
2019-05-02T11:15:12.719Z,10.90
2019-05-02T11:17:46.716Z,10.90
2019-05-02T11:20:16.680Z,10.90
2019-05-02T11:22:45.622Z,10.90
2019-05-02T11:25:15.713Z,10.90
2019-05-02T11:27:48.672Z,10.90
2019-05-02T11:30:22.444Z,10.80
2019-05-02T11:32:55.030Z,10.80
2019-05-02T11:35:23.919Z,10.90
2019-05-02T11:37:53.685Z,11.00
2019-05-02T11:40:22.825Z,11.10
2019-05-02T11:42:52.271Z,11.10
2019-05-02T11:45:22.691Z,11.00
2019-05-02T11:47:55.828Z,11.00
2019-05-02T11:50:26.717Z,10.90
2019-05-02T11:52:57.666Z,10.90
2019-05-02T11:55:29.077Z,10.90
2019-05-02T11:58:02.461Z,11.00
2019-05-02T12:00:39.715Z,11.00
2019-05-02T12:03:18.717Z,11.00
2019-05-02T12:06:35.801Z,11.00
2019-05-02T12:09:08.681Z,10.90
2019-05-02T12:11:41.841Z,10.90
2019-05-02T12:14:13.384Z,10.90
2019-05-02T12:16:43.122Z,10.80
2019-05-02T12:19:14.744Z,10.70
2019-05-02T12:21:48.210Z,10.70
2019-05-02T12:24:17.285Z,10.70
2019-05-02T12:26:47.581Z,10.60
2019-05-02T12:29:16.354Z,10.40
2019-05-02T12:31:47.274Z,10.20
2019-05-02T12:34:15.769Z,10.10
2019-05-02T12:36:44.743Z,10.00
2019-05-02T12:39:13.716Z,9.90
2019-05-02T12:41:44.229Z,10.00
2019-05-02T12:44:14.108Z,9.90
2019-05-02T12:46:42.953Z,9.90
2019-05-02T12:49:22.593Z,9.90
2019-05-02T12:51:42.908Z,9.90
2019-05-02T12:54:12.382Z,9.90
2019-05-02T12:56:41.838Z,9.90
2019-05-02T12:59:11.856Z,9.90
2019-05-02T13:01:42.158Z,9.90
2019-05-02T13:04:13.002Z,9.80
2019-05-02T13:06:42.263Z,9.80
2019-05-02T13:09:12.622Z,9.80
2019-05-02T13:12:02.806Z,9.70
2019-05-02T13:14:32.043Z,9.80
2019-05-02T13:17:05.278Z,9.80
2019-05-02T13:19:39.887Z,9.90
2019-05-02T13:22:04.386Z,9.90
2019-05-02T13:24:34.783Z,9.90
2019-05-02T13:27:05.424Z,10.00
2019-05-02T13:29:34.187Z,10.20
2019-05-02T13:32:08.696Z,10.40
2019-05-02T13:34:37.445Z,10.70
2019-05-02T13:37:08.606Z,11.00
2019-05-02T13:39:39.098Z,11.00
2019-05-02T13:42:09.472Z,11.00
2019-05-02T13:44:52.692Z,11.00
2019-05-02T13:47:23.189Z,11.10
2019-05-02T13:49:56.406Z,11.40
2019-05-02T13:52:22.671Z,11.60
2019-05-02T13:54:55.687Z,11.70
2019-05-02T13:57:24.458Z,11.40
2019-05-02T13:59:55.518Z,11.10
2019-05-02T14:02:39.703Z,10.90
2019-05-02T14:05:14.289Z,10.80
2019-05-02T14:08:01.833Z,10.70
2019-05-02T14:10:39.251Z,10.50
2019-05-02T14:13:04.261Z,10.50
2019-05-02T14:15:34.713Z,10.80
2019-05-02T14:18:04.379Z,11.10
2019-05-02T14:20:37.420Z,11.30
2019-05-02T14:23:07.536Z,11.40
2019-05-02T14:25:38.122Z,11.40
2019-05-02T14:28:08.036Z,11.30
2019-05-02T14:30:43.366Z,11.30
2019-05-02T14:33:11.992Z,11.30
2019-05-02T14:35:42.673Z,11.10
2019-05-02T14:38:13.320Z,11.10
2019-05-02T14:41:02.785Z,10.90
2019-05-02T14:43:53.755Z,10.90
2019-05-02T14:46:28.665Z,10.80
2019-05-02T14:48:55.309Z,10.90
2019-05-02T14:52:07.349Z,11.20
2019-05-02T14:54:43.809Z,11.60
2019-05-02T14:57:17.227Z,11.70
2019-05-02T15:02:49.519Z,11.30
2019-05-02T15:05:27.958Z,11.00
2019-05-02T15:07:51.803Z,10.80
2019-05-02T15:10:22.685Z,10.60
2019-05-02T15:12:59.379Z,10.30
2019-05-02T15:15:23.125Z,10.00
2019-05-02T15:17:53.187Z,9.70
2019-05-02T15:20:35.796Z,9.50
2019-05-02T15:22:53.620Z,9.50
2019-05-02T15:25:22.629Z,9.70
2019-05-02T15:27:58.181Z,9.90
2019-05-02T15:30:23.984Z,10.00
2019-05-02T15:32:54.159Z,10.10
2019-05-02T15:35:26.865Z,10.40
2019-05-02T15:37:56.737Z,10.60
2019-05-02T15:40:43.154Z,10.50
2019-05-02T15:43:01.428Z,10.40
2019-05-02T15:45:27.125Z,10.30
2019-05-02T15:47:56.047Z,10.30
2019-05-02T15:50:25.877Z,10.30
2019-05-02T15:53:49.779Z,10.10
2019-05-02T15:56:19.910Z,10.00
2019-05-02T15:58:46.193Z,9.90
2019-05-02T16:01:17.169Z,9.80
2019-05-02T16:03:52.135Z,9.70
2019-05-02T16:06:28.265Z,9.60
2019-05-02T16:08:52.072Z,9.60
2019-05-02T16:11:22.883Z,9.60
2019-05-02T16:13:55.702Z,9.60
2019-05-02T16:16:22.980Z,9.60
2019-05-02T16:18:52.549Z,9.50
2019-05-02T16:21:30.590Z,9.50
2019-05-02T16:24:17.564Z,9.50
2019-05-02T16:26:46.931Z,9.50
2019-05-02T16:29:23.699Z,9.40
2019-05-02T16:31:54.910Z,9.40
2019-05-02T16:34:27.246Z,9.40
2019-05-02T16:36:53.921Z,9.40
2019-05-02T16:39:23.474Z,9.30
2019-05-02T16:41:52.927Z,9.30
2019-05-02T16:44:22.350Z,9.20
2019-05-02T16:46:52.142Z,9.20
2019-05-02T16:49:22.805Z,9.20
2019-05-02T16:51:52.956Z,9.10
2019-05-02T16:54:22.562Z,9.10
2019-05-02T16:56:52.159Z,9.00
2019-05-02T16:59:23.198Z,8.80
2019-05-02T17:01:54.399Z,8.70
2019-05-02T17:04:22.362Z,8.50
2019-05-02T17:06:56.792Z,8.40
2019-05-02T17:09:28.831Z,8.20
2019-05-02T17:11:59.661Z,8.10
2019-05-02T17:14:28.766Z,8.10
2019-05-02T17:17:01.514Z,8.00
2019-05-02T17:19:34.781Z,8.00
2019-05-02T17:22:05.753Z,8.00
2019-05-02T17:24:35.424Z,8.10
2019-05-02T17:27:06.799Z,8.10
2019-05-02T17:32:28.846Z,8.20
2019-05-02T17:35:02.616Z,8.10
2019-05-02T17:37:33.619Z,8.20
2019-05-02T17:40:04.566Z,8.20
2019-05-02T17:43:28.760Z,8.10
2019-05-02T17:46:07.568Z,8.10
2019-05-02T17:48:39.269Z,8.00
2019-05-02T17:51:18.113Z,8.00
2019-05-02T17:53:50.119Z,8.00
2019-05-02T17:56:23.174Z,8.00
2019-05-02T17:58:58.143Z,8.00
2019-05-02T18:01:26.379Z,8.00
2019-05-02T18:03:56.572Z,8.00
2019-05-02T18:06:32.945Z,8.00
2019-05-02T18:08:57.191Z,8.00
2019-05-02T18:11:29.551Z,8.00
2019-05-02T18:14:02.385Z,8.00
2019-05-02T18:16:32.415Z,8.00
2019-05-02T18:19:01.896Z,8.00
2019-05-02T18:21:32.367Z,7.80
2019-05-02T18:24:06.028Z,7.70
2019-05-02T18:26:36.684Z,7.40
2019-05-02T18:29:06.797Z,7.20
2019-05-02T18:31:39.697Z,7.00
2019-05-02T18:34:11.898Z,6.90
2019-05-02T18:36:38.109Z,6.70
2019-05-02T18:39:13.002Z,6.60
2019-05-02T18:41:44.717Z,6.50
2019-05-02T18:44:17.114Z,6.50
2019-05-02T18:46:46.371Z,6.40
2019-05-02T18:49:17.043Z,6.40
2019-05-02T18:51:48.287Z,6.40
2019-05-02T18:54:21.696Z,6.40
2019-05-02T18:56:55.369Z,6.40
2019-05-02T18:59:27.240Z,6.40
2019-05-02T19:01:59.349Z,6.40
2019-05-02T19:04:34.966Z,6.40
2019-05-02T19:07:02.984Z,6.30
2019-05-02T19:12:51.369Z,6.10
2019-05-02T19:15:22.227Z,6.00
2019-05-02T19:17:52.994Z,6.00
2019-05-02T19:20:24.970Z,6.00
2019-05-02T19:22:56.844Z,5.90
2019-05-02T19:25:24.801Z,6.00
2019-05-02T19:27:57.627Z,6.00
2019-05-02T19:30:42.379Z,6.00
2019-05-02T19:33:12.300Z,6.00
2019-05-02T19:35:46.805Z,6.10
2019-05-02T19:38:17.100Z,6.10
2019-05-02T19:40:46.855Z,6.00
2019-05-02T19:43:15.775Z,6.10
2019-05-02T19:46:16.895Z,6.10
2019-05-02T19:49:16.594Z,6.10
2019-05-02T19:51:45.358Z,6.10
2019-05-02T19:54:14.940Z,6.10
2019-05-02T19:56:47.241Z,6.10
2019-05-02T19:59:16.802Z,6.10
2019-05-02T20:01:47.829Z,6.10
2019-05-02T20:04:16.781Z,6.00
2019-05-02T20:06:47.551Z,6.00
2019-05-02T20:09:16.792Z,5.90
2019-05-02T20:11:46.438Z,5.90
